createdAt,value
2022-11-25T00:11:41.101Z,98.38
2022-11-25T00:32:24.978Z,99.57
2022-11-25T00:43:58.848Z,100.00
2022-11-25T01:00:25.015Z,100.00
2022-11-25T01:11:29.290Z,100.00
2022-11-25T01:18:22.353Z,100.00
2022-11-25T01:33:44.914Z,100.00
2022-11-25T01:45:24.617Z,100.00
2022-11-25T02:06:12.917Z,100.00
2022-11-25T02:17:11.578Z,100.00
2022-11-25T03:03:45.255Z,100.00
2022-11-25T03:14:48.532Z,100.00
2022-11-25T03:30:26.739Z,100.00
2022-11-25T03:46:04.933Z,100.00
2022-11-25T03:57:20.324Z,100.00
2022-11-25T04:04:05.798Z,100.00
2022-11-25T04:24:10.437Z,100.00
2022-11-25T04:35:13.447Z,100.00
2022-11-25T05:04:53.157Z,100.00
2022-11-25T05:20:34.641Z,100.00
2022-11-25T05:31:38.390Z,100.00
2022-11-25T05:38:31.783Z,100.00
2022-11-25T05:53:53.557Z,100.00
2022-11-25T06:09:37.402Z,100.00
2022-11-25T06:42:18.833Z,100.00
2022-11-25T06:44:46.350Z,100.00
2022-11-25T06:47:13.529Z,100.00
2022-11-25T06:49:40.722Z,100.00
2022-11-25T06:52:08.078Z,100.00
2022-11-25T08:46:09.412Z,100.00
2022-11-25T08:48:36.582Z,100.00
2022-11-25T08:51:08.495Z,100.00
2022-11-25T08:53:35.766Z,100.00
2022-11-25T08:56:02.953Z,100.00
2022-11-25T08:58:30.080Z,100.00
2022-11-25T09:00:57.222Z,100.00
2022-11-25T09:03:25.154Z,100.00
2022-11-25T09:05:54.648Z,100.00
2022-11-25T09:08:22.011Z,100.00
2022-11-25T09:10:49.161Z,100.00
2022-11-25T09:13:16.341Z,100.00
2022-11-25T09:15:43.631Z,100.00
2022-11-25T09:18:11.147Z,100.00
2022-11-25T09:20:39.583Z,100.00
2022-11-25T09:23:08.125Z,100.00
2022-11-25T09:25:36.009Z,100.00
2022-11-25T09:28:04.169Z,100.00
2022-11-25T09:30:31.802Z,100.00
2022-11-25T09:32:58.941Z,100.00
2022-11-25T09:35:26.560Z,100.00
2022-11-25T09:37:53.684Z,100.00
2022-11-25T09:40:30.571Z,100.00
2022-11-25T09:43:34.777Z,100.00
2022-11-25T09:46:42.268Z,100.00
2022-11-25T09:49:21.189Z,100.00
2022-11-25T09:52:15.735Z,100.00
2022-11-25T09:54:48.551Z,100.00
2022-11-25T09:57:28.935Z,100.00
2022-11-25T10:00:11.687Z,100.00
2022-11-25T10:03:00.323Z,100.00
2022-11-25T10:05:32.775Z,100.00
2022-11-25T10:08:12.985Z,100.00
2022-11-25T10:10:44.961Z,100.00
2022-11-25T10:13:18.882Z,100.00
2022-11-25T10:15:49.217Z,100.00
2022-11-25T10:18:25.479Z,100.00
2022-11-25T10:20:53.183Z,100.00
2022-11-25T10:23:28.076Z,100.00
2022-11-25T10:26:02.166Z,100.00
2022-11-25T10:28:32.322Z,100.00
2022-11-25T10:31:22.242Z,100.00
2022-11-25T10:33:56.784Z,100.00
2022-11-25T10:36:27.805Z,100.00
2022-11-25T10:39:10.159Z,100.00
2022-11-25T10:41:46.485Z,100.00
2022-11-25T10:44:24.961Z,100.00
2022-11-25T10:47:24.369Z,100.00
2022-11-25T10:50:24.774Z,100.00
2022-11-25T10:53:10.434Z,100.00
2022-11-25T10:55:37.591Z,100.00
2022-11-25T10:58:44.692Z,100.00
2022-11-25T11:01:17.638Z,100.00
2022-11-25T11:03:46.646Z,100.00
2022-11-25T11:06:36.616Z,100.00
2022-11-25T11:09:04.314Z,100.00
2022-11-25T11:11:31.692Z,100.00
2022-11-25T11:14:20.838Z,100.00
2022-11-25T11:16:55.803Z,100.00
2022-11-25T11:19:28.636Z,100.00
2022-11-25T11:21:57.266Z,100.00
2022-11-25T11:24:35.812Z,100.00
2022-11-25T11:27:21.163Z,100.00
2022-11-25T11:29:49.041Z,100.00
2022-11-25T11:32:28.367Z,100.00
2022-11-25T11:34:59.489Z,100.00
2022-11-25T11:37:35.370Z,100.00
2022-11-25T11:40:26.342Z,100.00
2022-11-25T11:43:24.226Z,100.00
2022-11-25T11:46:15.110Z,100.00
2022-11-25T11:49:30.375Z,100.00
2022-11-25T11:52:11.324Z,100.00
2022-11-25T11:54:54.119Z,100.00
2022-11-25T11:57:49.070Z,100.00
2022-11-25T12:00:22.599Z,100.00
2022-11-25T12:03:07.958Z,100.00
2022-11-25T12:05:39.656Z,100.00
2022-11-25T12:08:13.503Z,100.00
2022-11-25T12:11:06.530Z,99.92
2022-11-25T12:13:50.361Z,98.81
2022-11-25T12:16:42.056Z,98.37
2022-11-25T12:19:13.002Z,96.81
2022-11-25T12:22:00.795Z,97.00
2022-11-25T12:24:37.194Z,96.66
2022-11-25T12:27:15.163Z,96.66
2022-11-25T12:29:49.495Z,97.02
2022-11-25T12:32:35.144Z,96.69
2022-11-25T12:35:36.852Z,97.26
2022-11-25T12:38:28.900Z,96.86
2022-11-25T12:41:24.527Z,96.95
2022-11-25T12:44:04.791Z,97.06
2022-11-25T12:46:45.859Z,96.52
2022-11-25T12:49:21.418Z,96.81
2022-11-25T12:52:01.510Z,97.08
2022-11-25T12:54:48.870Z,98.02
2022-11-25T12:57:47.400Z,97.75
2022-11-25T13:00:43.170Z,97.99
2022-11-25T13:03:35.134Z,98.09
2022-11-25T13:06:23.965Z,97.79
2022-11-25T13:08:53.669Z,97.83
2022-11-25T13:11:45.588Z,98.31
2022-11-25T13:14:40.842Z,99.19
2022-11-25T13:17:13.705Z,99.37
2022-11-25T13:19:41.163Z,99.54
2022-11-25T13:22:20.306Z,100.00
2022-11-25T13:24:47.609Z,99.81
2022-11-25T13:27:35.881Z,99.77
2022-11-25T13:30:04.505Z,99.89
2022-11-25T13:32:37.111Z,100.00
2022-11-25T13:35:26.074Z,99.55
2022-11-25T13:37:53.200Z,100.00
2022-11-25T13:40:28.521Z,99.99
2022-11-25T13:42:57.173Z,100.00
2022-11-25T13:45:30.381Z,100.00
2022-11-25T13:48:05.150Z,100.00
2022-11-25T14:08:12.040Z,100.00
2022-11-25T14:10:51.225Z,100.00
2022-11-25T14:13:23.960Z,100.00
2022-11-25T14:16:06.931Z,100.00
2022-11-25T14:19:54.823Z,100.00
2022-11-25T14:33:52.716Z,100.00
2022-11-25T14:36:26.775Z,100.00
2022-11-25T14:39:00.364Z,100.00
2022-11-25T14:41:35.585Z,100.00
2022-11-25T14:44:06.555Z,100.00
2022-11-25T14:46:33.748Z,100.00
2022-11-25T14:49:03.204Z,100.00
2022-11-25T14:51:37.102Z,100.00
2022-11-25T14:54:07.969Z,100.00
2022-11-25T14:56:36.587Z,100.00
2022-11-25T14:59:03.938Z,100.00
2022-11-25T15:01:33.592Z,100.00
2022-11-25T15:04:05.654Z,100.00
2022-11-25T15:06:37.159Z,100.00
2022-11-25T15:09:20.493Z,100.00
2022-11-25T15:11:48.171Z,100.00
2022-11-25T15:14:24.793Z,100.00
2022-11-25T15:16:52.660Z,100.00
2022-11-25T15:19:22.655Z,100.00
2022-11-25T15:22:22.394Z,100.00
2022-11-25T15:24:53.434Z,100.00
2022-11-25T15:27:27.880Z,100.00
2022-11-25T15:29:57.011Z,100.00
2022-11-25T15:32:33.233Z,100.00
2022-11-25T15:35:01.503Z,100.00
2022-11-25T15:37:29.052Z,100.00
2022-11-25T15:40:33.178Z,100.00
2022-11-25T15:43:01.942Z,100.00
2022-11-25T15:45:49.715Z,100.00
2022-11-25T15:48:23.278Z,100.00
2022-11-25T15:50:50.457Z,100.00
2022-11-25T15:53:27.633Z,100.00
2022-11-25T15:56:00.982Z,100.00
2022-11-25T15:58:28.208Z,100.00
2022-11-25T16:01:17.321Z,100.00
2022-11-25T16:03:45.607Z,100.00
2022-11-25T16:06:26.652Z,100.00
2022-11-25T16:09:00.142Z,100.00
2022-11-25T16:11:33.080Z,100.00
2022-11-25T16:14:28.755Z,100.00
2022-11-25T16:17:02.219Z,100.00
2022-11-25T16:19:38.533Z,100.00
2022-11-25T16:22:06.260Z,100.00
2022-11-25T16:24:39.588Z,100.00
2022-11-25T16:27:17.149Z,100.00
2022-11-25T16:30:05.578Z,100.00
2022-11-25T16:32:33.168Z,100.00
2022-11-25T16:35:12.018Z,100.00
2022-11-25T16:37:42.737Z,100.00
2022-11-25T16:40:13.794Z,100.00
2022-11-25T16:42:41.125Z,100.00
2022-11-25T16:45:25.564Z,100.00
2022-11-25T16:47:52.809Z,100.00
2022-11-25T16:50:20.990Z,100.00
2022-11-25T16:52:48.185Z,100.00
2022-11-25T16:55:15.729Z,100.00
2022-11-25T16:57:43.206Z,100.00
2022-11-25T17:00:16.773Z,100.00
2022-11-25T17:02:44.815Z,100.00
2022-11-25T17:05:19.129Z,100.00
2022-11-25T17:07:47.046Z,100.00
2022-11-25T17:10:14.244Z,100.00
2022-11-25T17:12:42.896Z,100.00
2022-11-25T17:15:33.494Z,100.00
2022-11-25T17:18:02.504Z,100.00
2022-11-25T17:20:29.901Z,100.00
2022-11-25T17:22:58.158Z,100.00
2022-11-25T17:25:31.011Z,100.00
2022-11-25T17:28:01.080Z,100.00
2022-11-25T17:30:28.646Z,100.00
2022-11-25T17:33:03.818Z,100.00
2022-11-25T17:35:31.015Z,100.00
2022-11-25T17:37:59.743Z,100.00
2022-11-25T17:40:26.946Z,100.00
2022-11-25T17:42:54.169Z,100.00
2022-11-25T17:45:21.862Z,100.00
2022-11-25T17:47:49.491Z,100.00
2022-11-25T17:50:25.428Z,100.00
2022-11-25T17:52:52.815Z,100.00
2022-11-25T17:55:21.806Z,100.00
2022-11-25T17:57:49.550Z,100.00
2022-11-25T18:00:19.666Z,100.00
2022-11-25T18:02:47.100Z,100.00
2022-11-25T18:05:23.228Z,100.00
2022-11-25T18:07:51.026Z,100.00
2022-11-25T18:10:20.734Z,100.00
2022-11-25T18:12:50.288Z,100.00
2022-11-25T18:15:20.771Z,100.00
2022-11-25T18:17:49.279Z,100.00
2022-11-25T18:20:18.848Z,100.00
2022-11-25T18:22:46.586Z,100.00
2022-11-25T18:25:15.347Z,100.00
2022-11-25T18:27:43.533Z,100.00
2022-11-25T18:30:22.062Z,100.00
2022-11-25T18:32:49.252Z,100.00
2022-11-25T18:35:17.445Z,100.00
2022-11-25T18:37:44.806Z,100.00
2022-11-25T18:40:13.200Z,100.00
2022-11-25T18:42:40.617Z,100.00
2022-11-25T18:45:15.891Z,100.00
2022-11-25T18:47:43.476Z,100.00
2022-11-25T18:50:21.962Z,100.00
2022-11-25T18:52:49.362Z,100.00
2022-11-25T18:55:18.250Z,100.00
2022-11-25T18:57:48.155Z,100.00
2022-11-25T19:00:34.585Z,100.00
2022-11-25T19:03:01.797Z,100.00
2022-11-25T19:05:31.251Z,100.00
2022-11-25T19:07:58.619Z,100.00
2022-11-25T19:10:30.213Z,100.00
2022-11-25T19:13:00.785Z,100.00
2022-11-25T19:15:28.077Z,100.00
2022-11-25T19:18:00.477Z,100.00
2022-11-25T19:20:28.507Z,100.00
2022-11-25T19:23:00.550Z,100.00
2022-11-25T19:25:28.914Z,100.00
2022-11-25T19:27:58.741Z,100.00
2022-11-25T19:30:28.192Z,100.00
2022-11-25T19:32:58.404Z,100.00
2022-11-25T19:35:33.888Z,100.00
2022-11-25T19:38:01.115Z,100.00
2022-11-25T19:40:34.715Z,100.00
2022-11-25T19:43:04.954Z,100.00
2022-11-25T19:45:32.420Z,100.00
2022-11-25T19:48:03.199Z,100.00
2022-11-25T19:50:30.407Z,100.00
2022-11-25T19:52:57.485Z,100.00
2022-11-25T19:55:28.584Z,100.00
2022-11-25T19:57:56.378Z,100.00
2022-11-25T20:00:24.550Z,100.00
2022-11-25T20:02:54.278Z,100.00
2022-11-25T20:05:30.063Z,100.00
2022-11-25T20:07:57.017Z,100.00
2022-11-25T20:10:26.367Z,100.00
2022-11-25T20:12:55.110Z,100.00
2022-11-25T20:15:22.915Z,100.00
2022-11-25T20:17:53.377Z,100.00
2022-11-25T20:20:26.506Z,100.00
2022-11-25T20:23:06.659Z,100.00
2022-11-25T20:25:41.020Z,100.00
2022-11-25T20:28:37.361Z,100.00
2022-11-25T20:31:04.584Z,100.00
2022-11-25T20:33:31.724Z,100.00
2022-11-25T20:36:05.076Z,100.00
2022-11-25T20:38:32.995Z,100.00
2022-11-25T20:41:00.666Z,100.00
2022-11-25T20:43:38.878Z,100.00
2022-11-25T20:46:09.439Z,100.00
2022-11-25T20:48:38.001Z,100.00
2022-11-25T20:51:10.014Z,100.00
2022-11-25T20:53:37.422Z,100.00
2022-11-25T20:56:05.587Z,100.00
2022-11-25T20:58:32.789Z,100.00
2022-11-25T21:00:59.982Z,100.00
2022-11-25T21:03:27.336Z,100.00
2022-11-25T21:05:55.757Z,100.00
2022-11-25T21:08:24.935Z,100.00
2022-11-25T21:10:55.440Z,100.00
2022-11-25T21:13:24.810Z,100.00
2022-11-25T21:15:56.663Z,100.00
2022-11-25T21:18:24.339Z,100.00
2022-11-25T21:20:53.284Z,100.00
2022-11-25T21:23:23.408Z,100.00
2022-11-25T21:25:50.673Z,100.00
2022-11-25T21:28:20.775Z,100.00
2022-11-25T21:30:47.967Z,100.00
2022-11-25T21:33:15.633Z,100.00
2022-11-25T21:35:45.587Z,100.00
2022-11-25T21:38:24.029Z,100.00
2022-11-25T21:40:53.453Z,100.00
2022-11-25T21:43:24.370Z,100.00
2022-11-25T21:46:03.876Z,100.00
2022-11-25T21:48:31.833Z,100.00
2022-11-25T21:50:59.297Z,100.00
2022-11-25T21:53:26.702Z,100.00
2022-11-25T21:55:54.085Z,100.00
2022-11-25T21:58:28.631Z,100.00
2022-11-25T22:00:57.809Z,100.00
2022-11-25T22:03:27.183Z,100.00
2022-11-25T22:05:54.538Z,100.00
2022-11-25T22:08:23.219Z,100.00
2022-11-25T22:10:52.778Z,100.00
2022-11-25T22:13:22.774Z,100.00
2022-11-25T22:15:57.641Z,100.00
2022-11-25T22:18:29.888Z,100.00
2022-11-25T22:20:57.336Z,100.00
2022-11-25T22:23:24.531Z,100.00
2022-11-25T22:25:51.881Z,100.00
2022-11-25T22:28:24.863Z,100.00
2022-11-25T22:30:53.948Z,100.00
2022-11-25T22:33:32.187Z,100.00
2022-11-25T22:35:59.528Z,100.00
2022-11-25T22:38:27.853Z,100.00
2022-11-25T22:41:01.237Z,100.00
2022-11-25T22:43:32.899Z,100.00
2022-11-25T22:46:00.157Z,100.00
2022-11-25T22:48:31.988Z,100.00
2022-11-25T22:50:59.341Z,100.00
2022-11-25T22:53:26.804Z,100.00
2022-11-25T22:55:58.389Z,100.00
2022-11-25T22:58:26.383Z,100.00
2022-11-25T23:00:54.796Z,100.00
2022-11-25T23:03:29.250Z,100.00
2022-11-25T23:05:56.899Z,100.00
2022-11-25T23:08:29.030Z,100.00
2022-11-25T23:10:56.749Z,100.00
2022-11-25T23:13:24.284Z,100.00
2022-11-25T23:15:53.820Z,100.00
2022-11-25T23:18:26.779Z,100.00
2022-11-25T23:20:54.158Z,100.00
2022-11-25T23:23:24.183Z,100.00
2022-11-25T23:25:51.452Z,100.00
2022-11-25T23:28:18.904Z,100.00
2022-11-25T23:30:49.946Z,100.00
2022-11-25T23:33:22.149Z,100.00
2022-11-25T23:35:49.313Z,100.00
2022-11-25T23:38:19.153Z,100.00
2022-11-25T23:40:46.320Z,100.00
2022-11-25T23:43:14.448Z,100.00
2022-11-25T23:45:55.901Z,100.00
2022-11-25T23:48:26.592Z,100.00
2022-11-25T23:50:55.216Z,100.00
2022-11-25T23:53:25.522Z,100.00
2022-11-25T23:55:52.663Z,100.00
2022-11-25T23:58:21.056Z,100.00
